createdAt,value
2022-11-14T00:01:16.610Z,68.78991484293796
2022-11-14T00:11:16.449Z,70.05715447611051
2022-11-14T00:21:16.580Z,75.41802069703392
2022-11-14T00:31:16.537Z,78.84889829327363
2022-11-14T00:41:15.872Z,80.41498141052826
2022-11-14T00:51:16.318Z,82.44614677871012
2022-11-14T01:01:16.693Z,86.47924531764689
2022-11-14T01:11:18.773Z,87.07661964570076
2022-11-14T01:21:17.158Z,89.43156784870023
2022-11-14T01:31:19.114Z,90.58657444200405
2022-11-14T01:41:16.222Z,91.61124282516995
2022-11-14T01:51:22.744Z,94.30600885154875
2022-11-14T02:01:16.196Z,95.09215634552528
2022-11-14T02:11:16.154Z,97.46734667269872
2022-11-14T02:21:16.780Z,96.76767199670681
2022-11-14T02:31:16.601Z,96.46837328357496
2022-11-14T02:41:16.488Z,94.91550516725651
2022-11-14T02:51:15.754Z,96.50561333752164
2022-11-14T03:01:21.139Z,98.025010370286
2022-11-14T03:11:16.920Z,98.23050061342698
2022-11-14T03:21:18.409Z,99.61694182718648
2022-11-14T03:31:16.553Z,100
2022-11-14T03:41:16.364Z,100
2022-11-14T03:51:16.605Z,100
2022-11-14T04:01:16.469Z,100
2022-11-14T04:11:15.966Z,100
2022-11-14T04:21:16.098Z,100
2022-11-14T04:31:15.969Z,100
2022-11-14T04:41:15.547Z,100
2022-11-14T04:51:16.521Z,100
2022-11-14T05:01:17.003Z,100
2022-11-14T05:11:17.698Z,100
2022-11-14T05:21:16.211Z,100
2022-11-14T05:31:18.179Z,100
2022-11-14T05:41:18.233Z,100
2022-11-14T05:51:16.287Z,100
2022-11-14T06:01:17.297Z,100
2022-11-14T06:11:18.768Z,100
2022-11-14T06:21:18.851Z,100
2022-11-14T06:31:17.332Z,100
2022-11-14T06:41:18.240Z,100
2022-11-14T06:51:17.206Z,100
2022-11-14T07:01:18.758Z,100
2022-11-14T07:11:24.837Z,100
2022-11-14T07:21:16.064Z,100
2022-11-14T07:31:18.366Z,100
2022-11-14T07:41:16.341Z,100
2022-11-14T07:51:18.870Z,100
2022-11-14T08:11:31.776Z,100
2022-11-14T08:21:16.542Z,100
2022-11-14T08:31:16.022Z,100
2022-11-14T08:41:16.163Z,100
2022-11-14T08:51:16.838Z,100
2022-11-14T09:01:16.685Z,100
2022-11-14T09:21:16.458Z,100
2022-11-14T09:31:16.602Z,100
2022-11-14T09:41:23.304Z,100
2022-11-14T09:51:20.703Z,100
2022-11-14T10:01:26.768Z,100
2022-11-14T10:11:22.953Z,100
2022-11-14T10:21:34.981Z,100
2022-11-14T10:31:28.999Z,100
2022-11-14T10:41:34.601Z,100
2022-11-14T10:51:23.390Z,100
2022-11-14T11:01:54.816Z,100
2022-11-14T11:11:31.744Z,100
2022-11-14T11:21:19.649Z,100
2022-11-14T11:31:17.103Z,100
2022-11-14T11:42:07.244Z,100
2022-11-14T11:51:21.746Z,100
2022-11-14T12:01:17.789Z,100
2022-11-14T12:11:20.074Z,100
2022-11-14T12:21:40.713Z,100
2022-11-14T12:31:17.795Z,99.97764097876691
2022-11-14T12:41:24.313Z,99.18092862340168
2022-11-14T12:51:50.818Z,96.62265519735402
2022-11-14T13:01:35.523Z,95.4130629639393
2022-11-14T13:11:34.469Z,93.30081635363744
2022-11-14T13:22:39.721Z,95.23069018879823
2022-11-14T13:31:19.350Z,94.51226721067361
2022-11-14T13:41:47.139Z,94.91514800232986
2022-11-14T14:01:35.038Z,86.87182209594053
2022-11-14T14:11:40.160Z,86.71704440526888
2022-11-14T14:21:31.526Z,87.3444728995754
2022-11-14T14:31:18.402Z,85.04829688266969
2022-11-14T14:41:19.936Z,86.50476915911443
2022-11-14T14:51:30.062Z,85.23738072185147
2022-11-14T15:01:19.779Z,86.75817852880994
2022-11-14T15:11:16.604Z,87.75810320976169
2022-11-14T15:21:24.608Z,85.52732480117285
2022-11-14T15:31:20.029Z,85.67216037926343
2022-11-14T15:41:19.808Z,86.25044786861909
2022-11-14T15:51:17.110Z,88.01900110725111
2022-11-14T16:01:23.629Z,87.46677421766692
2022-11-14T16:11:17.376Z,87.74059432571195
2022-11-14T16:21:18.397Z,88.31896757772651
2022-11-14T16:31:18.250Z,89.32105725231764
2022-11-14T16:41:18.948Z,90.73063044858141
2022-11-14T16:51:46.225Z,92.370882026405
2022-11-14T17:01:20.955Z,93.70431330451777
2022-11-14T17:11:17.584Z,93.63406809753806
2022-11-14T17:21:20.725Z,92.29618978009715
2022-11-14T17:31:17.962Z,92.94145078148009
2022-11-14T17:41:18.590Z,90.70422306597887
2022-11-14T17:51:16.787Z,91.1669311433394
2022-11-14T18:01:19.255Z,93.1768328148353
2022-11-14T18:11:16.973Z,94.02789871974409
2022-11-14T18:21:18.839Z,92.91657771313172
2022-11-14T18:31:16.246Z,92.6092624519599
2022-11-14T18:41:18.235Z,92.58194212539736
2022-11-14T18:51:18.415Z,93.98432843754472
2022-11-14T19:01:18.720Z,93.54598128035865
2022-11-14T19:12:18.547Z,94.47094446107741
2022-11-14T19:21:16.480Z,96.56705907316825
2022-11-14T19:31:17.371Z,96.02450613707462
2022-11-14T19:41:18.275Z,95.30565284351604
2022-11-14T19:51:17.523Z,96.814976985356
2022-11-14T20:01:18.214Z,97.11033036301318
2022-11-14T20:11:16.655Z,97.8117811716615
2022-11-14T20:21:19.840Z,95.95107139745177
2022-11-14T20:31:19.148Z,94.86210176599964
2022-11-14T20:41:17.790Z,98.22763102169995
2022-11-14T20:51:19.565Z,97.7898464775405
2022-11-14T21:01:16.779Z,96.73688777797781
2022-11-14T21:11:18.380Z,96.24012553807005
2022-11-14T21:21:18.149Z,96.8985965615454
2022-11-14T21:31:19.240Z,96.80191929100377
2022-11-14T21:41:18.940Z,97.67820165065899
2022-11-14T21:51:18.219Z,99.04796482525515
2022-11-14T22:01:18.754Z,100
2022-11-14T22:11:16.495Z,100
2022-11-14T22:21:16.562Z,100
2022-11-14T22:31:18.461Z,98.11911965139204
2022-11-14T22:41:18.588Z,98.96066637157851
2022-11-14T22:51:18.567Z,99.99507379062815
2022-11-14T23:01:20.724Z,99.4204702691001
2022-11-14T23:11:19.123Z,98.48314120706225
2022-11-14T23:21:18.403Z,100
2022-11-14T23:31:20.051Z,100
2022-11-14T23:41:18.752Z,100
2022-11-14T23:51:17.685Z,100
